sensor_id;sensor_type;location;lat;lon;timestamp;pressure;altitude;pressure_sealevel;temperature;humidity
1694;BME280;71975;47.068;15.408;2024-03-23T00:54:38;96901.72;;;14.18;47.48
1694;BME280;71975;47.068;15.408;2024-03-23T00:59:40;96889.50;;;14.22;47.48
1694;BME280;71975;47.068;15.408;2024-03-23T01:04:42;96889.44;;;14.13;47.99
1694;BME280;71975;47.068;15.408;2024-03-23T01:09:45;96884.88;;;13.97;48.95
1694;BME280;71975;47.068;15.408;2024-03-23T01:14:47;96878.28;;;13.86;49.92
1694;BME280;71975;47.068;15.408;2024-03-23T01:19:49;96874.50;;;13.83;49.69
1694;BME280;71975;47.068;15.408;2024-03-23T01:24:52;96868.53;;;13.76;50.27
1694;BME280;71975;47.068;15.408;2024-03-23T01:29:54;96868.34;;;13.70;49.98
1694;BME280;71975;47.068;15.408;2024-03-23T01:34:56;96860.75;;;13.53;50.55
1694;BME280;71975;47.068;15.408;2024-03-23T01:39:59;96857.03;;;13.47;50.85
1694;BME280;71975;47.068;15.408;2024-03-23T01:45:01;96849.00;;;13.43;51.25
1694;BME280;71975;47.068;15.408;2024-03-23T01:50:06;96850.00;;;13.24;52.64
1694;BME280;71975;47.068;15.408;2024-03-23T01:55:09;96841.19;;;13.32;52.67
1694;BME280;71975;47.068;15.408;2024-03-23T02:00:12;96836.41;;;13.37;52.23
1694;BME280;71975;47.068;15.408;2024-03-23T02:05:14;96820.81;;;13.50;52.14
1694;BME280;71975;47.068;15.408;2024-03-23T02:10:18;96816.91;;;13.51;51.76
1694;BME280;71975;47.068;15.408;2024-03-23T02:15:19;96812.72;;;13.24;52.26
1694;BME280;71975;47.068;15.408;2024-03-23T02:20:21;96798.38;;;13.11;52.92
1694;BME280;71975;47.068;15.408;2024-03-23T02:25:25;96788.59;;;13.26;52.15
1694;BME280;71975;47.068;15.408;2024-03-23T02:30:27;96784.41;;;13.35;51.12
1694;BME280;71975;47.068;15.408;2024-03-23T02:35:29;96781.31;;;13.23;51.81
1694;BME280;71975;47.068;15.408;2024-03-23T02:40:32;96774.47;;;13.19;52.50
1694;BME280;71975;47.068;15.408;2024-03-23T02:45:34;96768.38;;;12.77;54.21
1694;BME280;71975;47.068;15.408;2024-03-23T02:50:36;96770.78;;;12.75;53.98
1694;BME280;71975;47.068;15.408;2024-03-23T02:55:40;96766.44;;;12.90;52.32
1694;BME280;71975;47.068;15.408;2024-03-23T03:00:42;96752.72;;;12.94;52.03
1694;BME280;71975;47.068;15.408;2024-03-23T03:05:43;96747.19;;;12.72;53.40
1694;BME280;71975;47.068;15.408;2024-03-23T03:10:47;96746.66;;;12.52;54.33
1694;BME280;71975;47.068;15.408;2024-03-23T03:15:49;96747.97;;;12.35;55.37
1694;BME280;71975;47.068;15.408;2024-03-23T03:20:54;96739.38;;;12.49;54.75
1694;BME280;71975;47.068;15.408;2024-03-23T03:25:57;96732.09;;;12.46;54.92
1694;BME280;71975;47.068;15.408;2024-03-23T03:30:59;96739.66;;;12.26;55.33
1694;BME280;71975;47.068;15.408;2024-03-23T03:36:01;96740.34;;;12.30;54.98
1694;BME280;71975;47.068;15.408;2024-03-23T03:41:04;96746.97;;;12.29;54.84
1694;BME280;71975;47.068;15.408;2024-03-23T03:46:07;96733.09;;;12.39;54.86
1694;BME280;71975;47.068;15.408;2024-03-23T03:51:10;96722.75;;;12.22;55.21
1694;BME280;71975;47.068;15.408;2024-03-23T03:56:13;96724.94;;;12.27;55.11
1694;BME280;71975;47.068;15.408;2024-03-23T04:01:15;96724.66;;;12.09;55.56
1694;BME280;71975;47.068;15.408;2024-03-23T04:06:20;96724.13;;;12.01;55.67
1694;BME280;71975;47.068;15.408;2024-03-23T04:11:24;96706.69;;;12.15;55.20
1694;BME280;71975;47.068;15.408;2024-03-23T04:16:27;96703.63;;;12.00;55.60
1694;BME280;71975;47.068;15.408;2024-03-23T04:21:29;96703.44;;;12.20;55.03
1694;BME280;71975;47.068;15.408;2024-03-23T04:26:40;96694.31;;;12.26;54.60
1694;BME280;71975;47.068;15.408;2024-03-23T04:31:42;96682.81;;;12.35;54.07
1694;BME280;71975;47.068;15.408;2024-03-23T04:36:44;96691.06;;;12.44;53.74
1694;BME280;71975;47.068;15.408;2024-03-23T04:41:47;96672.75;;;11.24;57.13
1694;BME280;71975;47.068;15.408;2024-03-23T04:46:49;96678.09;;;10.66;60.48
1694;BME280;71975;47.068;15.408;2024-03-23T04:51:51;96668.31;;;11.87;56.77
1694;BME280;71975;47.068;15.408;2024-03-23T04:56:54;96678.94;;;10.63;60.94
1694;BME280;71975;47.068;15.408;2024-03-23T05:01:56;96676.22;;;10.47;61.95
1694;BME280;71975;47.068;15.408;2024-03-23T05:06:58;96673.59;;;10.28;62.03
1694;BME280;71975;47.068;15.408;2024-03-23T05:12:01;96664.97;;;10.49;61.47
1694;BME280;71975;47.068;15.408;2024-03-23T05:17:03;96660.75;;;10.32;62.48
1694;BME280;71975;47.068;15.408;2024-03-23T05:22:05;96651.50;;;10.13;64.83
1694;BME280;71975;47.068;15.408;2024-03-23T05:27:09;96659.94;;;10.15;65.82
1694;BME280;71975;47.068;15.408;2024-03-23T05:32:11;96650.41;;;11.77;60.13
1694;BME280;71975;47.068;15.408;2024-03-23T05:37:12;96642.88;;;12.10;58.80
1694;BME280;71975;47.068;15.408;2024-03-23T05:42:16;96636.25;;;12.36;57.23
1694;BME280;71975;47.068;15.408;2024-03-23T05:47:18;96637.63;;;12.41;56.81
1694;BME280;71975;47.068;15.408;2024-03-23T05:52:20;96631.44;;;12.40;57.09
1694;BME280;71975;47.068;15.408;2024-03-23T05:57:24;96627.00;;;12.34;57.96
1694;BME280;71975;47.068;15.408;2024-03-23T06:02:26;96631.16;;;12.01;58.05
1694;BME280;71975;47.068;15.408;2024-03-23T06:07:28;96639.66;;;10.88;63.81
1694;BME280;71975;47.068;15.408;2024-03-23T06:12:31;96634.75;;;10.83;64.76
1694;BME280;71975;47.068;15.408;2024-03-23T06:17:33;96623.53;;;12.46;58.39
1694;BME280;71975;47.068;15.408;2024-03-23T06:22:35;96623.75;;;12.39;58.83
1694;BME280;71975;47.068;15.408;2024-03-23T06:27:38;96609.13;;;12.83;56.69
1694;BME280;71975;47.068;15.408;2024-03-23T06:32:40;96606.22;;;12.99;56.29
1694;BME280;71975;47.068;15.408;2024-03-23T06:37:42;96602.44;;;13.31;55.54
1694;BME280;71975;47.068;15.408;2024-03-23T06:42:46;96595.66;;;13.36;55.33
1694;BME280;71975;47.068;15.408;2024-03-23T06:47:48;96610.53;;;12.16;58.32
1694;BME280;71975;47.068;15.408;2024-03-23T06:52:49;96596.63;;;12.14;59.16
1694;BME280;71975;47.068;15.408;2024-03-23T06:57:53;96600.97;;;12.36;59.38
1694;BME280;71975;47.068;15.408;2024-03-23T07:02:55;96592.00;;;12.61;59.88
1694;BME280;71975;47.068;15.408;2024-03-23T07:07:57;96593.34;;;12.44;59.95
1694;BME280;71975;47.068;15.408;2024-03-23T07:13:00;96595.84;;;12.51;60.01
1694;BME280;71975;47.068;15.408;2024-03-23T07:18:02;96594.88;;;12.45;60.07
1694;BME280;71975;47.068;15.408;2024-03-23T07:23:06;96587.75;;;12.73;57.96
1694;BME280;71975;47.068;15.408;2024-03-23T07:28:10;96581.53;;;12.72;58.01
1694;BME280;71975;47.068;15.408;2024-03-23T07:33:12;96589.16;;;12.64;58.89
1694;BME280;71975;47.068;15.408;2024-03-23T07:38:13;96583.00;;;12.64;59.20
1694;BME280;71975;47.068;15.408;2024-03-23T07:43:17;96584.22;;;12.50;59.26
1694;BME280;71975;47.068;15.408;2024-03-23T07:48:20;96579.38;;;12.67;57.62
1694;BME280;71975;47.068;15.408;2024-03-23T07:53:23;96579.97;;;12.84;58.70
1694;BME280;71975;47.068;15.408;2024-03-23T07:58:27;96580.44;;;12.82;57.47
1694;BME280;71975;47.068;15.408;2024-03-23T08:03:29;96563.81;;;12.80;58.27
1694;BME280;71975;47.068;15.408;2024-03-23T08:08:31;96564.56;;;13.37;58.22
1694;BME280;71975;47.068;15.408;2024-03-23T08:13:34;96559.97;;;13.24;56.80
1694;BME280;71975;47.068;15.408;2024-03-23T08:18:36;96556.19;;;13.53;57.58
1694;BME280;71975;47.068;15.408;2024-03-23T08:23:39;96541.88;;;13.92;55.46
1694;BME280;71975;47.068;15.408;2024-03-23T08:28:42;96547.47;;;14.37;53.83
1694;BME280;71975;47.068;15.408;2024-03-23T08:33:44;96533.56;;;14.53;53.74
1694;BME280;71975;47.068;15.408;2024-03-23T08:38:47;96529.34;;;14.61;52.36
1694;BME280;71975;47.068;15.408;2024-03-23T08:43:52;96517.25;;;15.08;50.22
1694;BME280;71975;47.068;15.408;2024-03-23T08:48:54;96509.44;;;15.93;48.69
1694;BME280;71975;47.068;15.408;2024-03-23T08:53:56;96501.44;;;20.64;37.50
1694;BME280;71975;47.068;15.408;2024-03-23T08:58:59;96491.56;;;23.13;32.57
1694;BME280;71975;47.068;15.408;2024-03-23T09:04:01;96475.34;;;24.28;30.01
1694;BME280;71975;47.068;15.408;2024-03-23T09:09:03;96463.00;;;24.72;29.66
1694;BME280;71975;47.068;15.408;2024-03-23T09:14:06;96450.91;;;25.12;28.40
1694;BME280;71975;47.068;15.408;2024-03-23T09:19:09;96441.50;;;26.10;27.04
1694;BME280;71975;47.068;15.408;2024-03-23T09:24:11;96440.81;;;27.43;25.06
1694;BME280;71975;47.068;15.408;2024-03-23T09:29:14;96437.25;;;26.09;26.94
1694;BME280;71975;47.068;15.408;2024-03-23T09:34:16;96423.44;;;25.14;27.50
1694;BME280;71975;47.068;15.408;2024-03-23T09:39:18;96419.34;;;25.65;27.21
1694;BME280;71975;47.068;15.408;2024-03-23T09:44:22;96407.91;;;26.14;26.56
1694;BME280;71975;47.068;15.408;2024-03-23T09:49:24;96409.88;;;24.73;27.62
1694;BME280;71975;47.068;15.408;2024-03-23T09:54:27;96396.97;;;25.32;26.87
1694;BME280;71975;47.068;15.408;2024-03-23T09:59:32;96389.97;;;24.19;27.85
1694;BME280;71975;47.068;15.408;2024-03-23T10:04:37;96381.84;;;25.33;26.94
1694;BME280;71975;47.068;15.408;2024-03-23T10:09:40;96386.31;;;25.54;26.41
1694;BME280;71975;47.068;15.408;2024-03-23T10:14:44;96367.91;;;25.07;27.07
1694;BME280;71975;47.068;15.408;2024-03-23T10:19:48;96359.34;;;26.33;25.98
1694;BME280;71975;47.068;15.408;2024-03-23T10:24:51;96356.75;;;26.62;23.92
1694;BME280;71975;47.068;15.408;2024-03-23T10:30:07;96337.91;;;26.81;24.08
1694;BME280;71975;47.068;15.408;2024-03-23T10:35:16;96340.03;;;26.02;25.73
1694;BME280;71975;47.068;15.408;2024-03-23T10:40:19;96347.38;;;25.47;25.72
1694;BME280;71975;47.068;15.408;2024-03-23T10:45:23;96331.50;;;26.00;26.01
1694;BME280;71975;47.068;15.408;2024-03-23T10:50:25;96328.16;;;26.41;26.31
1694;BME280;71975;47.068;15.408;2024-03-23T10:55:28;96307.84;;;27.83;25.10
1694;BME280;71975;47.068;15.408;2024-03-23T11:00:31;96302.72;;;28.38;23.13
1694;BME280;71975;47.068;15.408;2024-03-23T11:05:34;96287.56;;;28.03;23.67
1694;BME280;71975;47.068;15.408;2024-03-23T11:10:35;96274.94;;;27.66;23.51
1694;BME280;71975;47.068;15.408;2024-03-23T11:15:39;96255.78;;;27.98;23.52
1694;BME280;71975;47.068;15.408;2024-03-23T11:20:41;96239.72;;;29.46;21.95
1694;BME280;71975;47.068;15.408;2024-03-23T11:25:43;96229.81;;;29.75;21.33
1694;BME280;71975;47.068;15.408;2024-03-23T11:30:46;96223.88;;;29.86;21.38
1694;BME280;71975;47.068;15.408;2024-03-23T11:35:49;96202.09;;;30.25;20.95
1694;BME280;71975;47.068;15.408;2024-03-23T11:40:52;96198.72;;;30.34;20.66
1694;BME280;71975;47.068;15.408;2024-03-23T11:45:55;96179.94;;;30.59;20.25
1694;BME280;71975;47.068;15.408;2024-03-23T11:50:58;96176.22;;;31.47;19.39
1694;BME280;71975;47.068;15.408;2024-03-23T11:56:00;96166.78;;;31.18;20.08
1694;BME280;71975;47.068;15.408;2024-03-23T12:01:03;96154.56;;;30.64;20.43
1694;BME280;71975;47.068;15.408;2024-03-23T12:06:05;96137.75;;;31.14;20.28
1694;BME280;71975;47.068;15.408;2024-03-23T12:11:09;96119.91;;;30.92;20.69
1694;BME280;71975;47.068;15.408;2024-03-23T12:16:15;96110.31;;;29.96;21.22
1694;BME280;71975;47.068;15.408;2024-03-23T12:21:17;96109.84;;;30.89;20.60
1694;BME280;71975;47.068;15.408;2024-03-23T12:26:19;96091.34;;;30.52;20.81
1694;BME280;71975;47.068;15.408;2024-03-23T12:31:22;96087.97;;;30.29;21.39
1694;BME280;71975;47.068;15.408;2024-03-23T12:36:25;96079.88;;;30.65;20.86
1694;BME280;71975;47.068;15.408;2024-03-23T12:41:27;96077.25;;;28.53;22.60
1694;BME280;71975;47.068;15.408;2024-03-23T12:46:30;96060.91;;;28.72;23.27
1694;BME280;71975;47.068;15.408;2024-03-23T12:51:33;96057.47;;;29.11;22.76
1694;BME280;71975;47.068;15.408;2024-03-23T12:56:35;96059.66;;;29.35;20.72
1694;BME280;71975;47.068;15.408;2024-03-23T13:01:39;96060.91;;;28.72;21.27
1694;BME280;71975;47.068;15.408;2024-03-23T13:06:41;96047.75;;;29.35;20.97
1694;BME280;71975;47.068;15.408;2024-03-23T13:11:43;96031.94;;;30.27;20.14
1694;BME280;71975;47.068;15.408;2024-03-23T13:16:46;96024.53;;;28.47;21.56
1694;BME280;71975;47.068;15.408;2024-03-23T13:21:48;96018.59;;;28.28;21.34
1694;BME280;71975;47.068;15.408;2024-03-23T13:26:50;96014.44;;;27.10;22.77
1694;BME280;71975;47.068;15.408;2024-03-23T13:31:54;96002.72;;;26.68;23.69
1694;BME280;71975;47.068;15.408;2024-03-23T13:36:56;96000.81;;;25.86;24.52
1694;BME280;71975;47.068;15.408;2024-03-23T13:41:59;95990.38;;;26.77;22.94
1694;BME280;71975;47.068;15.408;2024-03-23T13:47:03;96000.97;;;26.01;22.55
1694;BME280;71975;47.068;15.408;2024-03-23T13:52:05;96000.59;;;25.30;23.30
1694;BME280;71975;47.068;15.408;2024-03-23T13:57:07;95992.59;;;24.66;24.10
1694;BME280;71975;47.068;15.408;2024-03-23T14:02:12;95997.94;;;24.77;24.26
1694;BME280;71975;47.068;15.408;2024-03-23T14:07:15;95983.25;;;24.43;24.30
1694;BME280;71975;47.068;15.408;2024-03-23T14:12:18;95981.88;;;24.36;24.88
1694;BME280;71975;47.068;15.408;2024-03-23T14:17:22;95975.66;;;23.72;25.52
1694;BME280;71975;47.068;15.408;2024-03-23T14:22:23;95972.78;;;23.65;25.98
1694;BME280;71975;47.068;15.408;2024-03-23T14:27:26;95964.22;;;23.50;26.29
1694;BME280;71975;47.068;15.408;2024-03-23T14:32:30;95961.38;;;23.55;26.06
1694;BME280;71975;47.068;15.408;2024-03-23T14:37:34;95957.44;;;23.13;26.81
1694;BME280;71975;47.068;15.408;2024-03-23T14:42:36;95952.63;;;23.01;26.67
1694;BME280;71975;47.068;15.408;2024-03-23T14:47:40;95950.91;;;22.79;27.01
1694;BME280;71975;47.068;15.408;2024-03-23T14:52:44;95955.38;;;22.82;27.27
1694;BME280;71975;47.068;15.408;2024-03-23T14:57:48;95955.22;;;22.75;26.99
1694;BME280;71975;47.068;15.408;2024-03-23T15:02:52;95954.88;;;22.84;27.38
1694;BME280;71975;47.068;15.408;2024-03-23T15:07:54;95964.19;;;22.81;27.16
1694;BME280;71975;47.068;15.408;2024-03-23T15:12:56;95990.06;;;22.54;29.12
1694;BME280;71975;47.068;15.408;2024-03-23T15:18:00;96019.06;;;21.47;31.72
1694;BME280;71975;47.068;15.408;2024-03-23T15:23:02;96050.31;;;19.90;34.95
1694;BME280;71975;47.068;15.408;2024-03-23T15:28:04;96094.88;;;18.71;36.25
1694;BME280;71975;47.068;15.408;2024-03-23T15:33:08;96130.16;;;17.44;37.79
1694;BME280;71975;47.068;15.408;2024-03-23T15:38:10;96135.66;;;17.03;37.82
1694;BME280;71975;47.068;15.408;2024-03-23T15:43:11;96154.78;;;16.34;38.64
1694;BME280;71975;47.068;15.408;2024-03-23T15:48:15;96140.78;;;15.82;39.74
1694;BME280;71975;47.068;15.408;2024-03-23T15:53:17;96175.56;;;15.20;41.63
1694;BME280;71975;47.068;15.408;2024-03-23T15:58:19;96196.16;;;14.65;43.67
1694;BME280;71975;47.068;15.408;2024-03-23T16:03:22;96209.47;;;14.03;45.41
1694;BME280;71975;47.068;15.408;2024-03-23T16:08:24;96210.91;;;13.44;46.89
1694;BME280;71975;47.068;15.408;2024-03-23T16:13:26;96228.97;;;13.10;48.57
1694;BME280;71975;47.068;15.408;2024-03-23T16:18:30;96262.09;;;12.87;49.11
1694;BME280;71975;47.068;15.408;2024-03-23T16:23:33;96236.06;;;12.28;50.74
1694;BME280;71975;47.068;15.408;2024-03-23T16:28:35;96295.84;;;12.16;50.70
1694;BME280;71975;47.068;15.408;2024-03-23T16:33:39;96299.72;;;11.71;52.15
1694;BME280;71975;47.068;15.408;2024-03-23T16:38:42;96334.13;;;11.24;53.41
1694;BME280;71975;47.068;15.408;2024-03-23T16:43:44;96362.75;;;11.25;54.27
1694;BME280;71975;47.068;15.408;2024-03-23T16:48:47;96395.38;;;11.09;56.81
1694;BME280;71975;47.068;15.408;2024-03-23T16:53:49;96423.22;;;10.97;56.94
1694;BME280;71975;47.068;15.408;2024-03-23T16:58:51;96476.56;;;10.26;60.33
1694;BME280;71975;47.068;15.408;2024-03-23T17:03:55;96492.78;;;10.26;60.76
1694;BME280;71975;47.068;15.408;2024-03-23T17:08:58;96499.03;;;10.23;59.42
1694;BME280;71975;47.068;15.408;2024-03-23T17:14:00;96497.00;;;10.11;59.26
1694;BME280;71975;47.068;15.408;2024-03-23T17:19:04;96506.13;;;10.01;59.50
1694;BME280;71975;47.068;15.408;2024-03-23T17:24:06;96506.81;;;10.21;58.81
1694;BME280;71975;47.068;15.408;2024-03-23T17:29:09;96515.34;;;10.20;57.66
1694;BME280;71975;47.068;15.408;2024-03-23T17:34:12;96534.88;;;10.43;56.39
1694;BME280;71975;47.068;15.408;2024-03-23T17:39:14;96556.50;;;10.43;55.38
1694;BME280;71975;47.068;15.408;2024-03-23T17:44:17;96548.16;;;10.22;56.38
1694;BME280;71975;47.068;15.408;2024-03-23T17:49:20;96543.78;;;10.56;55.22
1694;BME280;71975;47.068;15.408;2024-03-23T17:54:23;96542.88;;;10.63;54.15
1694;BME280;71975;47.068;15.408;2024-03-23T17:59:24;96553.19;;;10.68;54.35
1694;BME280;71975;47.068;15.408;2024-03-23T18:04:28;96560.75;;;10.73;54.34
1694;BME280;71975;47.068;15.408;2024-03-23T18:09:30;96543.13;;;10.52;53.96
1694;BME280;71975;47.068;15.408;2024-03-23T18:14:32;96516.25;;;10.45;53.81
1694;BME280;71975;47.068;15.408;2024-03-23T18:19:35;96493.47;;;10.59;53.59
1694;BME280;71975;47.068;15.408;2024-03-23T18:24:37;96476.31;;;10.78;52.13
1694;BME280;71975;47.068;15.408;2024-03-23T18:29:39;96484.97;;;10.73;52.32
1694;BME280;71975;47.068;15.408;2024-03-23T18:34:43;96482.63;;;10.88;50.75
1694;BME280;71975;47.068;15.408;2024-03-23T18:39:45;96495.19;;;10.82;51.72
1694;BME280;71975;47.068;15.408;2024-03-23T18:44:47;96517.75;;;10.62;51.07
1694;BME280;71975;47.068;15.408;2024-03-23T18:49:50;96511.31;;;10.56;53.54
1694;BME280;71975;47.068;15.408;2024-03-23T18:54:53;96524.34;;;10.61;53.35
1694;BME280;71975;47.068;15.408;2024-03-23T18:59:56;96526.47;;;10.54;53.85
1694;BME280;71975;47.068;15.408;2024-03-23T19:05:00;96551.75;;;10.47;54.91
1694;BME280;71975;47.068;15.408;2024-03-23T19:10:02;96563.94;;;10.55;54.14
1694;BME280;71975;47.068;15.408;2024-03-23T19:15:07;96589.47;;;10.54;57.16
1694;BME280;71975;47.068;15.408;2024-03-23T19:20:11;96603.19;;;10.31;61.20
1694;BME280;71975;47.068;15.408;2024-03-23T19:25:14;96636.81;;;10.14;62.79
1694;BME280;71975;47.068;15.408;2024-03-23T19:30:16;96636.09;;;10.10;63.32
1694;BME280;71975;47.068;15.408;2024-03-23T19:35:20;96650.81;;;10.09;62.32
1694;BME280;71975;47.068;15.408;2024-03-23T19:40:21;96661.13;;;9.78;64.72
1694;BME280;71975;47.068;15.408;2024-03-23T19:45:23;96648.06;;;9.93;64.10
1694;BME280;71975;47.068;15.408;2024-03-23T19:50:27;96655.06;;;9.90;65.03
1694;BME280;71975;47.068;15.408;2024-03-23T19:55:29;96646.38;;;9.99;63.33
1694;BME280;71975;47.068;15.408;2024-03-23T20:00:31;96660.22;;;10.21;60.43
1694;BME280;71975;47.068;15.408;2024-03-23T20:05:35;96698.03;;;10.40;54.47
1694;BME280;71975;47.068;15.408;2024-03-23T20:10:36;96738.38;;;10.15;56.60
1694;BME280;71975;47.068;15.408;2024-03-23T20:15:38;96740.59;;;10.00;60.90
1694;BME280;71975;47.068;15.408;2024-03-23T20:20:44;96749.59;;;9.74;60.92
1694;BME280;71975;47.068;15.408;2024-03-23T20:25:52;96738.44;;;9.53;61.17
1694;BME280;71975;47.068;15.408;2024-03-23T20:30:58;96683.50;;;9.40;62.81
1694;BME280;71975;47.068;15.408;2024-03-23T20:36:03;96619.78;;;9.22;63.27
1694;BME280;71975;47.068;15.408;2024-03-23T20:41:05;96627.75;;;9.29;66.17
1694;BME280;71975;47.068;15.408;2024-03-23T20:46:07;96649.38;;;9.29;64.20
1694;BME280;71975;47.068;15.408;2024-03-23T20:51:12;96663.97;;;9.12;64.46
1694;BME280;71975;47.068;15.408;2024-03-23T20:56:14;96674.75;;;9.12;65.35
1694;BME280;71975;47.068;15.408;2024-03-23T21:01:15;96660.78;;;9.17;70.40
1694;BME280;71975;47.068;15.408;2024-03-23T21:06:19;96666.31;;;8.87;69.40
1694;BME280;71975;47.068;15.408;2024-03-23T21:11:21;96680.69;;;8.57;70.22
1694;BME280;71975;47.068;15.408;2024-03-23T21:16:24;96676.38;;;8.37;71.77
1694;BME280;71975;47.068;15.408;2024-03-23T21:21:27;96691.78;;;8.36;70.74
1694;BME280;71975;47.068;15.408;2024-03-23T21:26:30;96711.00;;;8.42;72.53
1694;BME280;71975;47.068;15.408;2024-03-23T21:31:33;96719.41;;;8.17;74.79
1694;BME280;71975;47.068;15.408;2024-03-23T21:36:36;96730.34;;;7.73;77.21
1694;BME280;71975;47.068;15.408;2024-03-23T21:41:38;96716.75;;;7.53;79.62
1694;BME280;71975;47.068;15.408;2024-03-23T21:46:41;96708.34;;;7.48;79.97
1694;BME280;71975;47.068;15.408;2024-03-23T21:51:44;96706.09;;;7.39;80.18
1694;BME280;71975;47.068;15.408;2024-03-23T21:56:46;96682.31;;;7.34;82.10
1694;BME280;71975;47.068;15.408;2024-03-23T22:01:48;96657.56;;;7.46;81.55
1694;BME280;71975;47.068;15.408;2024-03-23T22:06:51;96651.47;;;7.42;81.16
1694;BME280;71975;47.068;15.408;2024-03-23T22:11:53;96684.63;;;7.32;81.96
1694;BME280;71975;47.068;15.408;2024-03-23T22:16:55;96714.13;;;7.09;85.48
1694;BME280;71975;47.068;15.408;2024-03-23T22:21:58;96698.75;;;7.06;87.22
1694;BME280;71975;47.068;15.408;2024-03-23T22:27:00;96710.19;;;7.17;85.61
1694;BME280;71975;47.068;15.408;2024-03-23T22:32:03;96713.91;;;7.30;84.22
1694;BME280;71975;47.068;15.408;2024-03-23T22:37:06;96682.69;;;7.36;84.54
1694;BME280;71975;47.068;15.408;2024-03-23T22:42:08;96678.50;;;7.31;85.25
1694;BME280;71975;47.068;15.408;2024-03-23T22:47:10;96669.69;;;7.27;86.25
1694;BME280;71975;47.068;15.408;2024-03-23T22:52:13;96678.47;;;7.35;86.63
1694;BME280;71975;47.068;15.408;2024-03-23T22:57:15;96673.94;;;7.28;87.59
1694;BME280;71975;47.068;15.408;2024-03-23T23:02:17;96674.47;;;7.47;86.18
1694;BME280;71975;47.068;15.408;2024-03-23T23:07:20;96696.88;;;7.40;87.20
1694;BME280;71975;47.068;15.408;2024-03-23T23:12:23;96710.53;;;7.56;86.90
1694;BME280;71975;47.068;15.408;2024-03-23T23:17:25;96710.41;;;7.67;85.65
1694;BME280;71975;47.068;15.408;2024-03-23T23:22:28;96679.03;;;7.53;87.39
1694;BME280;71975;47.068;15.408;2024-03-23T23:27:30;96697.66;;;7.37;89.40
1694;BME280;71975;47.068;15.408;2024-03-23T23:32:32;96691.84;;;7.42;86.67
1694;BME280;71975;47.068;15.408;2024-03-23T23:37:35;96707.03;;;7.22;87.62
1694;BME280;71975;47.068;15.408;2024-03-23T23:42:37;96704.22;;;6.99;89.96
1694;BME280;71975;47.068;15.408;2024-03-23T23:47:39;96719.78;;;6.77;91.76
1694;BME280;71975;47.068;15.408;2024-03-23T23:52:42;96718.22;;;6.80;90.15
1694;BME280;71975;47.068;15.408;2024-03-23T23:57:44;96715.09;;;6.85;89.23
